Latest Weather Observations for Batchelor

IDD60901

Issued at 7:51 pm CST Sunday 7 February 2016 (issued every 10 minutes, with the page automatically refreshed every 10 minutes)

About weather observations | Map of Darwin area stations | Latest observations for Darwin area | Other Formats
Station Details ID: 014272 Name: BATCHELOR AIRPORT Lat: -13.05 Lon: 131.03 Height: 104.0 m
Data from the previous 72 hours. | See also: Recent months at Batchelor
Date/Time
CST
Tmp

°C
App
Tmp
°C
Dew
Point
°C
Rel
Hum
%
Delta-T

°C
Wind Press
QNH
hPa
Press
MSL
hPa
Rain
since
9 am
mm
Dir
 
Spd
km/h
Gust
km/h
Spd
kts
Gust
kts
07/07:30pm 25.9 30.1 23.4 86 1.7 SSW 7 9 4 5 1008.4 1007.7 0.0
07/07:00pm 25.7 31.3 23.6 88 1.4 CALM 0 4 0 2 1007.8 1007.1 0.0
07/06:30pm 26.2 30.8 23.1 83 2.1 W 4 7 2 4 1007.3 1006.6 0.0
07/06:00pm 26.1 30.3 23.2 84 2.0 N 6 11 3 6 1006.7 1006.0 0.0
07/05:30pm 25.6 29.3 23.3 87 1.6 N 9 13 5 7 1006.7 1006.0 0.0
07/05:00pm 25.7 29.4 23.2 86 1.7 N 9 17 5 9 1006.8 1006.1 0.0
07/04:30pm 25.8 29.6 22.7 83 2.1 N 7 15 4 8 1007.2 1006.5 0.0
07/04:00pm 26.4 28.1 22.3 78 2.8 WNW 17 24 9 13 1006.4 1005.7 0.0
07/03:30pm 27.7 30.9 22.4 73 3.6 WSW 9 15 5 8 1006.2 1005.5 0.0
07/03:00pm 28.8 31.0 21.8 66 4.7 W 13 22 7 12 1005.8 1005.0 0.0
07/02:30pm 32.0 35.8 22.4 57 6.6 ESE 6 11 3 6 1006.1 1005.4 0.0
07/02:00pm 32.4 36.4 23.1 58 6.4 SE 7 9 4 5 1006.6 1005.9 0.0
07/01:30pm 31.6 33.4 21.2 54 7.0 ESE 13 19 7 10 1007.0 1006.3 0.0
07/01:00pm 32.6 37.7 24.1 61 6.0 E 4 11 2 6 1007.4 1006.7 0.0
07/12:30pm 32.5 37.6 23.4 58 6.3 SW 2 6 1 3 1007.9 1007.2 0.0
07/12:00pm 31.1 35.2 23.0 62 5.6 NW 6 9 3 5 1008.4 1007.7 0.0
07/11:30am 31.1 35.7 23.2 63 5.5 NNW 4 7 2 4 1008.8 1008.1 0.0
07/11:00am 30.6 35.0 23.5 66 4.9 NNW 6 9 3 5 1009.0 1008.3 0.0
07/10:30am 31.6 37.4 25.2 69 4.5 N 4 9 2 5 1009.1 1008.4 0.0
07/10:00am 30.2 34.8 23.1 65 4.9 S 4 7 2 4 1009.1 1008.4 0.0
07/09:30am 29.6 33.8 23.1 68 4.5 WSW 6 7 3 4 1008.9 1008.2 0.0
07/09:00am 28.9 33.5 23.1 71 4.0 SW 4 6 2 3 1008.8 1008.1 0.6
07/08:30am 28.3 34.4 24.5 80 2.7 CALM 0 2 0 1 1008.4 1007.7 0.6
07/08:00am 27.4 33.4 24.8 86 1.8 WSW 2 4 1 2 1008.3 1007.6 0.6
07/07:30am 26.1 32.6 25.1 94 0.7 CALM 0 0 0 0 1008.0 1007.3 0.6
07/07:00am 24.9 30.9 24.2 96 0.5 CALM 0 0 0 0 1007.9 1007.2 0.6
07/06:30am 24.6 30.3 23.7 95 0.6 CALM 0 0 0 0 1007.8 1007.1 0.6
07/06:00am 24.7 30.4 23.7 94 0.7 CALM 0 0 0 0 1007.5 1006.8 0.6
07/05:30am 24.9 30.7 23.9 94 0.7 CALM 0 0 0 0 1007.4 1006.7 0.6
07/05:00am 25.1 31.0 24.1 94 0.7 CALM 0 0 0 0 1007.1 1006.4 0.6
07/04:30am 24.9 30.6 23.7 93 0.8 CALM 0 0 0 0 1006.8 1006.1 0.6
07/04:00am 25.3 31.2 24.1 93 0.8 CALM 0 0 0 0 1006.6 1005.9 0.6
07/03:30am 25.3 31.2 24.1 93 0.8 CALM 0 0 0 0 1006.6 1005.9 0.6
07/03:00am 25.4 30.9 24.0 92 1.0 WSW 2 4 1 2 1006.7 1006.0 0.6
07/02:30am 25.3 30.7 23.9 92 1.0 WSW 2 4 1 2 1006.8 1006.1 0.6
07/02:00am 25.5 30.9 23.9 91 1.1 WSW 2 4 1 2 1007.2 1006.5 0.6
07/01:30am 25.5 30.9 23.9 91 1.1 SE 2 4 1 2 1007.7 1007.0 0.6
07/01:00am 25.7 30.4 23.9 90 1.2 S 6 7 3 4 1008.4 1007.7 0.6
07/12:30am 26.2 32.2 24.2 89 1.4 CALM 0 4 0 2 1008.4 1007.7 0.6
07/12:00am 26.4 31.5 24.1 87 1.6 W 4 6 2 3 1008.6 1007.9 0.6
 
Date/Time
CST
Tmp

°C
App
Tmp
°C
Dew
Point
°C
Rel
Hum
%
Delta-T

°C
Wind Press
QNH
hPa
Press
MSL
hPa
Rain
since
9 am
mm
Dir
 
Spd
km/h
Gust
km/h
Spd
kts
Gust
kts
06/11:30pm 26.6 31.7 24.1 86 1.7 W 4 7 2 4 1008.6 1007.9 0.6
06/11:00pm 26.9 31.4 24.0 84 2.0 WNW 7 13 4 7 1008.6 1007.9 0.6
06/10:30pm 27.2 31.7 23.9 82 2.3 WNW 7 13 4 7 1008.5 1007.8 0.6
06/10:00pm 27.2 32.3 24.1 83 2.1 WNW 4 7 2 4 1008.3 1007.6 0.6
06/09:30pm 27.2 32.3 24.1 83 2.2 WNW 4 4 2 2 1008.0 1007.3 0.6
06/09:00pm 27.5 33.3 23.9 81 2.5 CALM 0 4 0 2 1007.6 1006.9 0.6
06/08:30pm 27.7 32.7 23.9 80 2.6 NW 4 6 2 3 1007.0 1006.3 0.6
06/08:00pm 28.1 33.5 24.5 81 2.5 W 4 6 2 3 1006.4 1005.7 0.6
06/07:30pm 28.8 35.0 25.2 81 2.5 W 2 4 1 2 1006.1 1005.4 0.6
06/07:00pm 29.3 35.6 24.8 77 3.2 CALM 0 0 0 0 1005.9 1005.1 0.6
06/06:30pm 29.9 35.0 24.1 71 4.1 W 4 6 2 3 1005.6 1004.8 0.6
06/06:00pm 30.1 34.9 23.5 67 4.6 W 4 6 2 3 1005.3 1004.5 0.6
06/05:30pm 30.3 34.7 23.5 67 4.7 WNW 6 9 3 5 1005.1 1004.3 0.6
06/05:00pm 30.8 34.3 23.5 65 5.1 WNW 11 15 6 8 1005.0 1004.2 0.6
06/04:30pm 32.2 35.9 22.6 57 6.6 SW 7 11 4 6 1005.0 1004.2 0.6
06/04:00pm 31.5 35.0 22.8 60 6.0 SW 9 17 5 9 1005.2 1004.4 0.6
06/03:30pm 32.0 36.1 23.3 60 6.0 SW 7 13 4 7 1005.4 1004.6 0.6
06/03:00pm 31.2 35.3 23.0 61 5.7 SW 6 11 3 6 1005.7 1004.9 0.6
06/02:30pm 31.2 35.7 23.6 64 5.3 SW 6 9 3 5 1006.1 1005.4 0.6
06/02:00pm 31.0 34.8 23.4 64 5.3 W 9 15 5 8 1006.5 1005.8 0.6
06/01:30pm 30.6 33.6 22.7 62 5.4 W 11 17 6 9 1006.9 1006.2 0.6
06/01:00pm 30.0 32.9 22.4 63 5.2 WNW 11 20 6 11 1007.6 1006.9 0.6
06/12:30pm 30.0 32.4 22.9 65 4.9 WNW 15 20 8 11 1008.2 1007.5 0.6
06/12:00pm 28.9 32.1 23.1 71 4.0 WNW 11 19 6 10 1008.4 1007.7 0.6
06/11:30am 28.4 30.9 22.4 70 4.1 WNW 13 19 7 10 1008.7 1008.0 0.6
06/11:00am 28.5 32.6 24.5 79 2.8 WNW 11 19 6 10 1008.9 1008.2 0.6
06/10:30am 26.5 31.4 24.3 88 1.5 WNW 6 11 3 6 1009.2 1008.5 0.6
06/10:00am 25.1 28.5 23.3 90 1.2 W 11 17 6 9 1009.3 1008.6 0.6
06/09:30am 25.0 29.4 23.8 93 0.8 W 7 11 4 6 1009.6 1008.9 0.0
06/09:00am 24.6 28.5 23.6 94 0.7 WNW 9 13 5 7 1009.5 1008.8 36.4
06/08:30am 24.2 28.5 23.7 97 0.3 W 7 13 4 7 1009.2 1008.5 36.4
06/08:00am 23.7 27.8 23.2 97 0.3 WSW 7 13 4 7 1008.9 1008.2 36.0
06/07:30am 23.6 27.8 23.1 97 0.3 SW 6 9 3 5 1008.9 1008.2 35.6
06/07:00am 23.6 27.1 22.9 96 0.5 WSW 9 15 5 8 1008.7 1008.0 31.6
06/06:30am 23.9 27.8 23.0 95 0.6 SSW 7 15 4 8 1008.4 1007.7 18.4
06/06:00am 24.9 29.4 24.0 95 0.6 W 7 13 4 7 1007.9 1007.2 1.8
06/05:30am 25.2 29.9 24.3 95 0.6 NW 7 11 4 6 1007.3 1006.6 0.2
06/05:00am 25.0 30.1 24.1 95 0.6 WSW 4 6 2 3 1006.8 1006.1 0.2
06/04:30am 25.1 30.5 23.9 93 0.8 WSW 2 4 1 2 1006.6 1005.9 0.2
06/04:00am 25.1 30.7 23.5 91 1.1 CALM 0 0 0 0 1006.5 1005.8 0.2
06/03:30am 25.0 30.6 23.6 92 1.0 CALM 0 0 0 0 1006.6 1005.9 0.2
06/03:00am 25.0 30.6 23.6 92 1.0 CALM 0 0 0 0 1006.8 1006.1 0.2
06/02:30am 24.9 30.5 23.5 92 1.0 CALM 0 0 0 0 1007.2 1006.5 0.2
06/02:00am 24.9 30.3 23.9 94 0.7 WSW 2 4 1 2 1007.5 1006.8 0.2
06/01:30am 24.9 30.6 23.7 93 0.8 CALM 0 0 0 0 1007.8 1007.1 0.2
06/01:00am 24.8 29.9 23.4 92 1.0 WSW 2 4 1 2 1008.1 1007.4 0.2
06/12:30am 24.8 29.5 23.4 92 1.0 WSW 4 6 2 3 1008.3 1007.6 0.2
06/12:00am 25.0 30.6 23.6 92 1.0 CALM 0 0 0 0 1008.5 1007.8 0.2
 
Date/Time
CST
Tmp

°C
App
Tmp
°C
Dew
Point
°C
Rel
Hum
%
Delta-T

°C
Wind Press
QNH
hPa
Press
MSL
hPa
Rain
since
9 am
mm
Dir
 
Spd
km/h
Gust
km/h
Spd
kts
Gust
kts
05/11:30pm 24.9 30.3 23.3 91 1.1 CALM 0 0 0 0 1008.8 1008.1 0.2
05/11:00pm 24.8 30.3 23.4 92 1.0 CALM 0 0 0 0 1008.8 1008.1 0.2
05/10:30pm 24.8 29.9 23.4 92 1.0 WSW 2 4 1 2 1008.7 1008.0 0.2
05/10:00pm 24.9 30.0 23.3 91 1.1 WSW 2 4 1 2 1008.5 1007.8 0.2
05/09:30pm 24.9 29.4 23.0 89 1.3 WSW 4 6 2 3 1008.7 1008.0 0.2
05/09:00pm 25.0 29.5 22.9 88 1.4 WSW 4 6 2 3 1008.5 1007.8 0.2
05/08:30pm 25.2 30.1 23.6 91 1.1 W 4 7 2 4 1008.1 1007.4 0.2
05/08:00pm 25.2 29.7 23.6 91 1.1 W 6 9 3 5 1008.0 1007.3 0.2
05/07:30pm 25.2 29.7 23.6 91 1.1 NW 6 9 3 5 1007.9 1007.2 0.2
05/07:00pm 25.4 29.6 23.5 89 1.3 WNW 7 13 4 7 1007.7 1007.0 0.2
05/06:30pm 25.9 30.1 23.2 85 1.8 WNW 6 9 3 5 1007.2 1006.5 0.2
05/06:00pm 26.0 29.5 22.9 83 2.1 NNW 9 17 5 9 1006.6 1005.9 0.2
05/05:30pm 25.8 29.6 22.7 83 2.1 N 7 13 4 7 1006.0 1005.2 0.2
05/05:00pm 25.7 28.8 22.2 81 2.4 ENE 9 15 5 8 1006.3 1005.6 0.2
05/04:30pm 26.0 28.1 21.7 77 2.9 W 13 19 7 10 1005.9 1005.1 0.2
05/04:00pm 28.3 30.8 21.8 68 4.4 WSW 11 20 6 11 1005.4 1004.6 0.2
05/03:30pm 29.0 31.9 23.2 71 4.0 WSW 13 19 7 10 1005.0 1004.2 0.2
05/03:00pm 32.6 36.8 23.5 58 6.3 WSW 7 13 4 7 1004.9 1004.1 0.2
05/02:30pm 33.1 37.6 23.7 57 6.6 SSE 6 9 3 5 1005.2 1004.4 0.2
05/02:00pm 32.6 36.8 24.1 61 6.0 WNW 9 15 5 8 1005.9 1005.1 0.2
05/01:30pm 32.4 36.7 23.6 59 6.1 W 7 11 4 6 1006.7 1006.0 0.2
05/01:00pm 31.7 36.6 24.6 66 5.0 W 7 11 4 6 1007.3 1006.6 0.2
05/12:30pm 31.0 35.5 23.6 64 5.1 SSE 6 11 3 6 1007.6 1006.9 0.2
05/12:00pm 30.8 35.0 23.2 64 5.3 W 6 13 3 7 1008.0 1007.3 0.2
05/11:30am 30.6 35.3 24.0 68 4.6 SW 6 9 3 5 1008.3 1007.6 0.2
05/11:00am 30.0 33.8 22.7 65 5.0 WSW 7 13 4 7 1008.7 1008.0 0.2
05/10:30am 29.9 34.6 24.3 72 3.9 WSW 7 13 4 7 1009.1 1008.4 0.2
05/10:00am 29.1 34.2 24.7 77 3.1 WSW 6 11 3 6 1009.4 1008.7 0.2
05/09:30am 28.4 33.1 24.0 77 3.1 WNW 6 9 3 5 1009.5 1008.8 0.2
05/09:00am 27.7 33.5 23.9 80 2.6 CALM 0 2 0 1 1009.4 1008.7 14.4
05/08:30am 26.2 32.0 24.6 91 1.1 SE 2 4 1 2 1009.4 1008.7 14.4
05/08:00am 25.5 31.6 25.0 97 0.3 SE 2 4 1 2 1009.0 1008.3 14.4
05/07:30am 25.0 30.4 24.5 97 0.3 ESE 4 4 2 2 1008.6 1007.9 14.4
05/07:00am 24.8 30.8 24.3 97 0.3 CALM 0 0 0 0 1008.2 1007.5 14.4
05/06:30am 24.8 30.8 24.3 97 0.3 CALM 0 0 0 0 1007.8 1007.1 14.4
05/06:00am 24.9 31.0 24.4 97 0.3 CALM 0 0 0 0 1007.5 1006.8 14.4
05/05:30am 24.9 31.0 24.4 97 0.3 CALM 0 0 0 0 1007.3 1006.6 14.4
05/05:00am 24.9 31.0 24.4 97 0.3 CALM 0 0 0 0 1007.4 1006.7 14.4
05/04:30am 24.9 31.0 24.4 97 0.3 CALM 0 0 0 0 1007.4 1006.7 14.4
05/04:00am 25.0 31.0 24.3 96 0.5 CALM 0 0 0 0 1007.6 1006.9 14.4
05/03:30am 24.9 30.9 24.2 96 0.5 CALM 0 0 0 0 1008.0 1007.3 14.4
05/03:00am 24.9 30.9 24.2 96 0.5 CALM 0 0 0 0 1008.4 1007.7 14.4
05/02:30am 24.9 30.9 24.2 96 0.5 CALM 0 0 0 0 1008.6 1007.9 14.4
05/02:00am 24.9 31.0 24.4 97 0.3 CALM 0 0 0 0 1008.8 1008.1 14.2
05/01:30am 24.9 31.0 24.4 97 0.3 CALM 0 0 0 0 1009.1 1008.4 13.8
05/01:00am 24.9 30.9 24.2 96 0.5 CALM 0 4 0 2 1009.5 1008.8 13.2
05/12:30am 24.9 30.9 24.2 96 0.5 CALM 0 0 0 0 1009.8 1009.1 13.2
05/12:00am 25.0 30.3 24.3 96 0.5 ESE 4 6 2 3 1010.1 1009.4 13.0
 
Date/Time
CST
Tmp

°C
App
Tmp
°C
Dew
Point
°C
Rel
Hum
%
Delta-T

°C
Wind Press
QNH
hPa
Press
MSL
hPa
Rain
since
9 am
mm
Dir
 
Spd
km/h
Gust
km/h
Spd
kts
Gust
kts
04/11:30pm 25.0 30.3 24.3 96 0.5 SE 4 6 2 3 1010.2 1009.5 12.8
04/11:00pm 24.9 30.2 24.4 97 0.3 SE 4 6 2 3 1010.2 1009.5 12.6
04/10:30pm 24.9 29.8 24.4 97 0.3 ESE 6 7 3 4 1009.9 1009.2 12.4
04/10:00pm 24.9 29.7 24.2 96 0.5 E 6 9 3 5 1009.7 1009.0 12.4
04/09:30pm 24.7 29.4 24.0 96 0.5 ESE 6 7 3 4 1009.6 1008.9 12.0
04/09:00pm 24.7 29.7 23.8 95 0.6 SSE 4 6 2 3 1009.2 1008.5 11.8
04/08:30pm 24.7 30.5 24.0 96 0.5 CALM 0 0 0 0 1008.9 1008.2 11.8
04/08:00pm 24.8 30.7 24.1 96 0.5 CALM 0 0 0 0 1008.6 1007.9 11.6

Latest Capital City Observations: Canberra | Sydney | Melbourne | Brisbane | Adelaide | Perth | Hobart | Darwin

Other Formats:

Comma delimited format used in spreadsheet applications
http://www.bom.gov.au/fwo/IDD60901/IDD60901.94125.axf

JavaScript Object Notation format (JSON) in row-major order
http://www.bom.gov.au/fwo/IDD60901/IDD60901.94125.json